Eureka, CA

03:11 AM PDT die 30o August, anno 2014 (GMT -0700)
Henderson Center | Change Station
CLOSE
Current Station
Personal Weather Stations
Location: Eureka, CA
Elevation: 125 ft
Nearby Weather Stations

Elev 125 ft 40.78 °N, 124.17 °W | Updated 5 seconds ago

Partialiter Nubila
Partialiter Nubila
62.2 °F
Feels Like 62.2 °F
N
0.0
Ventus Variabilis Ventus from Magis Aquilo quam Zephyrus
Gusts 0.0 mph

Hodie
High -- | Low -- °F
--% Chance of Precip.
Yesterday
High -- | Low -- °F
Precip. -- in
6:41 AM 7:51 PM
Waxing Crescent, 21% visible
Pressio 30.03 in
Visibilitas 10.0 milia passuum
Clouds Plerumque Nubila 1200 ft
Frigus in quo Ros apparet 57 °F
Umor 83%
Rainfall 0.00 in
Snow Depth Not available.
UV 0 out of 12
Pollen 9.10 out of 12
Air Quality Not available.
Flu Activity Not available.
METAR KACV 300953Z AUTO 08003KT 10SM BKN012 12/11 A3001 RMK AO2 SLP167 T01220111

More Conditions Fewer Conditions

Pressio 30.03 in
Visibilitas 10.0 milia passuum
Clouds Plerumque Nubila 1200 ft
Frigus in quo Ros apparet 57 °F
Umor 83%
Rainfall 0.00 in
Snow Depth Not available.
UV 0 out of 12
Pollen 9.10 out of 12
Air Quality Not available.
Flu Activity Not available.
METAR KACV 300953Z AUTO 08003KT 10SM BKN012 12/11 A3001 RMK AO2 SLP167 T01220111

More Conditions Fewer Conditions

10-Day Weather Forecast

Almanac

Astronomy

Aug. 30, 2014 Rise Set
Actual Time 6:41 AM PDT 7:51 PM PDT
Civil Twilight 6:13 AM PDT 8:20 PM PDT
Nautical Twilight 5:39 AM PDT 8:53 PM PDT
Astronomical Twilight 5:04 AM PDT 9:28 PM PDT
Moon 11:36 AM PDT 10:27 PM PDT
Length Of Visible Light 14h 06m
Length of Day
13h 10m
Tomorrow will be 2m 35s shorter.
Waxing Crescent, 21% of the Moon is Illuminated
Hodie
Waxing Crescent
Sep 2
First Quarter
Sep 8
Full
Sep 15
Last Quarter
Sep 24
New

Today's Extremes

State Highs State Lows

Community

WunderPhotos

Upload Photos

1,748,481 photos uploaded!

Nearby

Snow Depth

Station Depth Elevation
Adin Mountain 0 in 6200 ft
Cedar Pass 1 in 7100 ft
CSS Lab 3 in 6900 ft
Rubicon #2 0 in 7500 ft
Echo Peak 1 in 7800 ft

Earthquake Activity

City Distance Mag. Time & Date
The Geysers, California 152 milia passuum 2.7 2:53 PM PDT
2014-08-29
Minimum magnitude displayed is 2.5.

Coastal Water Temperatures

Locus Calor
North Spit, CA 57.9 °F
Crescent City, CA 61.0 °F

Nearby Weather Stations